createdAt,value
2022-10-11T03:55:54.279Z,100919.13
2022-10-11T03:58:56.601Z,100916.72
2022-10-11T04:01:58.778Z,100911.87
2022-10-11T04:05:01.769Z,100920.69
2022-10-11T04:08:06.319Z,100913.66
2022-10-11T04:11:12.413Z,100913.50
2022-10-11T04:14:14.597Z,100915.19
2022-10-11T04:17:17.267Z,100917.84
2022-10-11T04:20:19.384Z,100918.75
2022-10-11T04:23:21.665Z,100919.41
2022-10-11T04:26:24.414Z,100935.03
2022-10-11T04:29:32.162Z,100925.72
2022-10-11T04:32:34.834Z,100924.91
2022-10-11T04:35:37.424Z,100927.50
2022-10-11T04:38:39.550Z,100932.75
2022-10-11T04:41:41.846Z,100920.47
2022-10-11T04:44:43.869Z,100923.25
2022-10-11T04:47:46.778Z,100922.38
2022-10-11T04:50:48.789Z,100909.34
2022-10-11T04:53:51.962Z,100918.19
2022-10-11T04:56:54.033Z,100898.97
2022-10-11T04:59:56.327Z,100907.69
2022-10-11T05:02:58.578Z,100915.72
2022-10-11T05:06:05.230Z,100919.13
2022-10-11T05:09:08.127Z,100912.19
2022-10-11T05:12:10.445Z,100918.50
2022-10-11T05:15:12.476Z,100924.50
2022-10-11T05:18:14.759Z,100923.88
2022-10-11T05:21:28.828Z,100924.75
2022-10-11T05:24:31.323Z,100932.69
2022-10-11T05:27:33.346Z,100939.81
2022-10-11T05:30:35.669Z,100937.38
2022-10-11T05:33:38.669Z,100934.75
2022-10-11T05:36:40.982Z,100940.91
2022-10-11T05:39:43.029Z,100939.94
2022-10-11T05:42:45.325Z,100939.13
2022-10-11T05:45:47.381Z,100943.66
2022-10-11T05:48:49.697Z,100944.53
2022-10-11T05:51:51.738Z,100946.22
2022-10-11T05:54:54.028Z,100955.72
2022-10-11T05:57:57.724Z,100958.34
2022-10-11T06:01:00.101Z,100961.88
2022-10-11T06:04:02.628Z,100957.56
2022-10-11T06:07:05.662Z,100962.06
2022-10-11T06:10:08.928Z,100971.00
2022-10-11T06:13:10.968Z,100972.78
2022-10-11T06:16:13.630Z,100968.47
2022-10-11T06:19:15.670Z,100982.72
2022-10-11T06:22:18.535Z,100979.16
2022-10-11T06:25:20.879Z,100978.31
2022-10-11T06:28:23.258Z,100969.44
2022-10-11T06:31:25.396Z,100982.72
2022-10-11T06:34:28.432Z,100981.97
2022-10-11T06:37:30.458Z,100984.50
2022-10-11T06:40:32.783Z,100979.22
2022-10-11T06:43:34.868Z,100979.22
2022-10-11T06:46:37.927Z,100982.78
2022-10-11T06:49:39.962Z,100977.53
2022-10-11T06:52:42.262Z,100968.78
2022-10-11T06:55:44.305Z,100975.91
2022-10-11T06:58:47.241Z,100977.78
2022-10-11T07:01:49.383Z,100979.59
2022-10-11T07:04:51.691Z,100992.69
2022-10-11T07:07:53.810Z,100990.88
2022-10-11T07:11:07.971Z,100989.25
2022-10-11T07:14:10.254Z,100994.56
2022-10-11T07:17:12.548Z,100986.75
2022-10-11T07:20:14.721Z,100992.94
2022-10-11T07:23:17.263Z,100988.59
2022-10-11T07:26:19.931Z,100992.09
2022-10-11T07:29:22.233Z,100993.13
2022-10-11T07:32:24.316Z,100994.94
2022-10-11T07:35:26.755Z,100988.88
2022-10-11T07:38:28.967Z,100991.50
2022-10-11T07:41:31.382Z,101007.41
2022-10-11T07:44:34.205Z,101003.09
2022-10-11T07:47:36.489Z,100989.91
2022-10-11T07:50:38.547Z,100999.59
2022-10-11T07:53:47.005Z,100997.84
2022-10-11T07:56:49.101Z,100998.72
2022-10-11T07:59:51.531Z,100997.81
2022-10-11T08:02:53.575Z,101000.50
2022-10-11T08:06:00.501Z,100996.06
2022-10-11T08:09:03.201Z,101001.38
2022-10-11T08:12:05.581Z,100996.97
2022-10-11T08:15:07.946Z,101002.25
2022-10-11T08:18:10.263Z,101010.16
2022-10-11T08:21:14.891Z,101000.47
2022-10-11T08:24:20.690Z,101004.00
2022-10-11T08:27:22.758Z,101003.13
2022-10-11T08:30:25.117Z,101007.53
2022-10-11T08:33:27.505Z,101003.13
2022-10-11T08:36:29.799Z,101002.25
2022-10-11T08:39:32.208Z,101017.22
2022-10-11T08:42:44.498Z,101016.34
2022-10-11T08:45:50.859Z,101004.03
2022-10-11T08:48:54.262Z,101007.53
2022-10-11T08:52:02.532Z,101006.69
2022-10-11T08:55:15.194Z,101007.53
2022-10-11T08:58:21.626Z,101011.94
2022-10-11T09:01:26.494Z,101004.00
2022-10-11T09:04:29.165Z,100997.84
2022-10-11T09:07:47.766Z,100999.59
2022-10-11T09:11:26.850Z,100997.78
2022-10-11T09:14:38.805Z,101003.06
2022-10-11T09:18:04.188Z,101003.91
2022-10-11T09:21:39.907Z,100996.84
2022-10-11T09:25:06.724Z,101005.59
2022-10-11T09:28:42.928Z,101005.56
2022-10-11T09:31:54.701Z,101014.34
2022-10-11T09:35:09.741Z,101013.44
2022-10-11T09:38:18.020Z,101014.34
2022-10-11T09:41:36.691Z,101015.22
2022-10-11T09:44:50.133Z,101012.56
2022-10-11T09:47:55.912Z,101013.47
2022-10-11T09:51:11.243Z,101020.50
2022-10-11T09:54:13.560Z,101016.91
2022-10-11T09:57:34.073Z,101011.47
2022-10-11T10:00:36.446Z,101009.75
2022-10-11T10:03:42.122Z,101014.09
2022-10-11T10:06:44.222Z,101026.28
2022-10-11T10:09:46.817Z,101015.69
2022-10-11T10:12:54.706Z,101012.06
2022-10-11T10:16:01.191Z,101016.37
2022-10-11T10:19:17.690Z,101013.66
2022-10-11T10:22:34.421Z,100999.56
2022-10-11T10:25:43.069Z,100999.22
2022-10-11T10:29:16.575Z,100999.94
2022-10-11T10:32:28.144Z,100995.25
2022-10-11T10:35:32.281Z,100993.50
2022-10-11T10:38:52.030Z,100997.34
2022-10-11T10:41:55.885Z,100993.03
2022-10-11T10:44:59.425Z,100997.47
2022-10-11T10:48:53.748Z,100994.88
2022-10-11T10:52:05.407Z,100994.00
2022-10-11T10:55:23.548Z,100998.28
2022-10-11T10:58:40.986Z,100987.53
2022-10-11T11:02:28.228Z,100995.50
2022-10-11T11:05:46.585Z,100981.31
2022-10-11T11:09:02.826Z,100985.84
2022-10-11T11:12:26.265Z,100985.78
2022-10-11T11:15:43.395Z,100979.75
2022-10-11T11:19:18.675Z,100976.37
2022-10-11T11:22:39.513Z,100977.34
2022-10-11T11:25:44.816Z,100977.19
2022-10-11T11:29:00.094Z,100976.19
2022-10-11T11:32:17.216Z,100981.28
2022-10-11T11:35:33.479Z,100980.38
2022-10-11T11:38:51.176Z,100976.88
2022-10-11T11:41:59.657Z,100963.66
2022-10-11T11:45:12.901Z,100966.22
2022-10-11T11:48:20.733Z,100965.16
2022-10-11T11:51:31.565Z,100951.81
2022-10-11T11:55:04.299Z,100957.09
2022-10-11T11:58:27.727Z,100965.00
2022-10-11T12:01:57.696Z,100958.84
2022-10-11T12:05:00.657Z,100951.47
2022-10-11T12:08:08.416Z,100954.84
2022-10-11T12:11:31.679Z,100950.41
2022-10-11T12:14:40.127Z,100952.59
2022-10-11T12:17:57.646Z,100947.94
2022-10-11T12:21:07.239Z,100943.19
2022-10-11T12:24:15.467Z,100944.81
2022-10-11T12:27:40.982Z,100943.22
2022-10-11T12:31:03.975Z,100937.22
2022-10-11T12:34:09.220Z,100936.38
2022-10-11T12:37:20.375Z,100937.16
2022-10-11T12:40:42.301Z,100926.34
2022-10-11T12:43:50.457Z,100920.25
2022-10-11T12:46:55.116Z,100933.53
2022-10-11T12:50:25.974Z,100928.03
2022-10-11T12:54:07.915Z,100925.37
2022-10-11T12:57:46.178Z,100922.50
2022-10-11T13:00:51.752Z,100925.69
2022-10-11T13:04:05.617Z,100918.63
2022-10-11T13:07:15.363Z,100918.97
2022-10-11T13:10:24.857Z,100922.75
2022-10-11T13:13:39.445Z,100924.66
2022-10-11T13:16:50.634Z,100920.22
2022-10-11T13:20:01.597Z,100924.75
2022-10-11T13:23:03.919Z,100931.38
2022-10-11T13:26:05.984Z,100931.53
2022-10-11T13:29:17.224Z,100936.22
2022-10-11T13:32:26.274Z,100933.56
2022-10-11T13:35:37.390Z,100936.41
2022-10-11T13:38:40.640Z,100938.13
2022-10-11T13:41:43.407Z,100940.94
2022-10-11T13:44:47.065Z,100935.88
2022-10-11T13:47:51.009Z,100941.09
2022-10-11T13:51:06.013Z,100931.59
2022-10-11T13:54:13.482Z,100944.00
2022-10-11T13:57:15.963Z,100937.88
2022-10-11T14:00:22.574Z,100943.09
2022-10-11T14:03:37.408Z,100934.22
2022-10-11T14:06:52.204Z,100937.53
2022-10-11T14:09:55.734Z,100933.06
2022-10-11T14:13:24.293Z,100939.09
2022-10-11T14:16:26.501Z,100933.66
2022-10-11T14:19:28.555Z,100938.06
2022-10-11T14:22:31.032Z,100931.09
2022-10-11T14:25:33.719Z,100933.75
2022-10-11T14:28:49.504Z,100932.81
2022-10-11T14:31:56.267Z,100940.78
2022-10-11T14:34:59.145Z,100938.25
2022-10-11T14:38:01.197Z,100948.81
2022-10-11T14:41:03.766Z,100941.87
2022-10-11T14:44:05.810Z,100940.19
2022-10-11T14:47:08.692Z,100945.63
2022-10-11T14:50:28.992Z,100937.66
2022-10-11T14:53:31.302Z,100942.19
2022-10-11T14:56:33.418Z,100944.91
2022-10-11T14:59:37.674Z,100947.59
2022-10-11T15:02:39.694Z,100940.59
2022-10-11T15:05:42.345Z,100934.41
2022-10-11T15:08:44.485Z,100936.16
2022-10-11T15:11:48.804Z,100937.12
2022-10-11T15:14:50.833Z,100937.19
2022-10-11T15:17:55.906Z,100944.25
2022-10-11T15:20:58.537Z,100951.38
2022-10-11T15:24:00.861Z,100945.22
2022-10-11T15:27:02.975Z,100958.53
2022-10-11T15:30:17.878Z,100958.56
2022-10-11T15:33:20.157Z,100960.34
